createdAt,value
2023-05-05T00:01:03.078Z,13.19
2023-05-05T00:03:31.097Z,13.15
2023-05-05T00:05:59.023Z,13.11
2023-05-05T00:08:27.917Z,13.06
2023-05-05T00:10:56.588Z,13.01
2023-05-05T00:13:25.151Z,12.96
2023-05-05T00:15:53.868Z,12.91
2023-05-05T00:18:21.917Z,12.87
2023-05-05T00:20:50.036Z,12.84
2023-05-05T00:23:37.938Z,12.81
2023-05-05T00:26:06.521Z,12.79
2023-05-05T00:28:35.092Z,12.78
2023-05-05T00:31:03.055Z,12.76
2023-05-05T00:33:31.225Z,12.74
2023-05-05T00:35:59.141Z,12.73
2023-05-05T00:38:27.480Z,12.71
2023-05-05T00:40:55.321Z,12.71
2023-05-05T00:43:23.432Z,12.69
2023-05-05T00:46:02.041Z,12.67
2023-05-05T00:48:30.741Z,12.64
2023-05-05T00:50:58.894Z,12.61
2023-05-05T00:53:27.524Z,12.59
2023-05-05T00:55:55.371Z,12.56
2023-05-05T00:58:23.418Z,12.52
2023-05-05T01:00:51.532Z,12.48
2023-05-05T01:03:19.742Z,12.46
2023-05-05T01:06:01.002Z,12.43
2023-05-05T01:08:50.732Z,12.41
2023-05-05T01:11:29.991Z,12.38
2023-05-05T01:14:17.786Z,12.37
2023-05-05T01:16:50.624Z,12.31
2023-05-05T01:19:43.566Z,12.25
2023-05-05T01:22:15.127Z,12.21
2023-05-05T01:25:15.571Z,12.20
2023-05-05T01:28:02.140Z,12.16
2023-05-05T01:30:48.773Z,12.12
2023-05-05T01:33:24.612Z,12.08
2023-05-05T01:36:02.871Z,12.08
2023-05-05T01:38:40.652Z,12.07
2023-05-05T01:41:16.613Z,12.08
2023-05-05T01:43:48.631Z,12.07
2023-05-05T01:46:19.413Z,12.08
2023-05-05T01:48:49.061Z,12.09
2023-05-05T01:51:19.388Z,12.09
2023-05-05T01:53:48.123Z,12.13
2023-05-05T01:56:17.175Z,12.15
2023-05-05T01:58:46.748Z,12.15
2023-05-05T02:01:16.676Z,12.12
2023-05-05T02:03:47.465Z,12.11
2023-05-05T02:06:18.220Z,12.10
2023-05-05T02:08:47.328Z,12.08
2023-05-05T02:11:17.548Z,12.08
2023-05-05T02:13:48.645Z,12.08
2023-05-05T02:16:18.788Z,12.05
2023-05-05T02:18:48.105Z,12.03
2023-05-05T02:21:18.222Z,12.03
2023-05-05T02:23:48.281Z,12.01
2023-05-05T02:26:19.541Z,11.99
2023-05-05T02:29:04.399Z,11.99
2023-05-05T02:31:38.310Z,12.00
2023-05-05T02:34:08.206Z,11.98
2023-05-05T02:36:39.355Z,11.94
2023-05-05T02:39:25.473Z,11.92
2023-05-05T02:41:55.476Z,11.91
2023-05-05T02:44:45.979Z,11.88
2023-05-05T02:47:14.797Z,11.79
2023-05-05T02:49:43.184Z,11.72
2023-05-05T02:52:11.366Z,11.67
2023-05-05T02:54:39.405Z,11.62
2023-05-05T02:57:19.991Z,11.61
2023-05-05T03:00:10.174Z,11.58
2023-05-05T03:02:44.902Z,11.56
2023-05-05T03:05:21.360Z,11.54
2023-05-05T03:08:03.458Z,11.54
2023-05-05T03:10:40.315Z,11.54
2023-05-05T03:13:10.278Z,11.55
2023-05-05T03:15:47.371Z,11.54
2023-05-05T03:18:18.363Z,11.53
2023-05-05T03:20:50.298Z,11.52
2023-05-05T03:23:21.109Z,11.52
2023-05-05T03:25:50.393Z,11.51
2023-05-05T03:28:38.545Z,11.51
2023-05-05T03:31:15.860Z,11.52
2023-05-05T03:33:43.926Z,11.54
2023-05-05T03:36:11.987Z,11.54
2023-05-05T03:38:40.251Z,11.55
2023-05-05T03:41:08.631Z,11.56
2023-05-05T03:43:36.653Z,11.58
2023-05-05T03:46:05.535Z,11.55
2023-05-05T03:48:34.273Z,11.51
2023-05-05T03:51:02.112Z,11.49
2023-05-05T03:53:30.790Z,11.49
2023-05-05T03:55:58.688Z,11.49
2023-05-05T03:58:26.926Z,11.56
2023-05-05T04:00:54.882Z,11.65
2023-05-05T04:03:23.325Z,11.74
2023-05-05T04:05:51.670Z,11.77
2023-05-05T04:08:20.079Z,11.75
2023-05-05T04:10:47.979Z,11.73
2023-05-05T04:13:16.568Z,11.70
2023-05-05T04:15:47.849Z,11.68
2023-05-05T04:18:16.062Z,11.66
2023-05-05T04:20:44.053Z,11.68
2023-05-05T04:23:12.744Z,11.73
2023-05-05T04:25:40.766Z,11.81
2023-05-05T04:28:08.790Z,11.87
2023-05-05T04:30:37.530Z,11.92
2023-05-05T04:33:05.576Z,12.00
2023-05-05T04:35:33.536Z,12.08
2023-05-05T04:38:02.014Z,12.14
2023-05-05T04:40:30.380Z,12.20
2023-05-05T04:42:58.379Z,12.25
2023-05-05T04:45:26.442Z,12.31
2023-05-05T04:47:54.430Z,12.38
2023-05-05T04:50:22.339Z,12.44
2023-05-05T04:52:52.699Z,12.43
2023-05-05T04:55:20.947Z,12.42
2023-05-05T04:57:48.841Z,12.44
2023-05-05T05:00:17.236Z,12.47
2023-05-05T05:02:45.169Z,12.50
2023-05-05T05:05:13.163Z,12.57
2023-05-05T05:07:41.163Z,12.63
2023-05-05T05:10:09.903Z,12.66
2023-05-05T05:12:38.104Z,12.65
2023-05-05T05:15:06.774Z,12.64
2023-05-05T05:17:34.699Z,12.58
2023-05-05T05:20:05.011Z,12.53
2023-05-05T05:22:33.303Z,12.48
2023-05-05T05:25:02.059Z,12.45
2023-05-05T05:27:30.550Z,12.48
2023-05-05T05:29:58.617Z,12.52
2023-05-05T05:32:27.039Z,12.52
2023-05-05T05:34:55.337Z,12.53
2023-05-05T05:37:23.136Z,12.58
2023-05-05T05:39:52.191Z,12.67
2023-05-05T05:42:21.014Z,12.78
2023-05-05T05:44:49.245Z,12.89
2023-05-05T05:47:17.177Z,13.00
2023-05-05T05:49:45.983Z,13.17
2023-05-05T05:52:13.910Z,13.33
2023-05-05T05:54:42.067Z,13.48
2023-05-05T05:57:10.326Z,13.61
2023-05-05T05:59:38.511Z,13.79
2023-05-05T06:02:07.300Z,14.01
2023-05-05T06:04:35.500Z,14.21
2023-05-05T06:07:03.693Z,14.37
2023-05-05T06:09:32.031Z,14.58
2023-05-05T06:12:01.926Z,14.82
2023-05-05T06:14:30.226Z,15.08
2023-05-05T06:16:58.129Z,15.30
2023-05-05T06:19:26.457Z,15.55
2023-05-05T06:21:54.866Z,15.80
2023-05-05T06:24:23.311Z,16.02
2023-05-05T06:26:51.345Z,16.26
2023-05-05T06:29:19.269Z,16.45
2023-05-05T06:31:47.326Z,16.57
2023-05-05T06:34:15.488Z,16.62
2023-05-05T06:36:43.431Z,16.71
2023-05-05T06:39:11.780Z,16.86
2023-05-05T06:41:40.165Z,16.99
2023-05-05T06:44:08.134Z,17.12
2023-05-05T06:46:36.452Z,17.29
2023-05-05T06:49:04.619Z,17.41
2023-05-05T06:51:32.671Z,17.51
2023-05-05T06:54:00.500Z,17.66
2023-05-05T06:56:28.420Z,17.85
2023-05-05T06:58:56.406Z,18.01
2023-05-05T07:01:24.483Z,18.21
2023-05-05T07:03:52.560Z,18.38
2023-05-05T07:06:20.667Z,18.48
2023-05-05T07:08:48.385Z,18.62
2023-05-05T07:11:16.369Z,18.79
2023-05-05T07:13:44.386Z,18.89
2023-05-05T07:16:12.230Z,19.02
2023-05-05T07:18:40.108Z,19.26
2023-05-05T07:21:44.371Z,19.46
2023-05-05T07:24:12.328Z,19.58
2023-05-05T07:26:40.439Z,19.65
2023-05-05T07:29:08.341Z,19.70
2023-05-05T07:31:36.357Z,19.72
2023-05-05T07:34:04.261Z,19.76
2023-05-05T07:36:33.011Z,19.84
2023-05-05T07:39:01.054Z,20.00
2023-05-05T07:41:29.095Z,20.22
2023-05-05T07:43:57.229Z,20.45
2023-05-05T07:46:25.171Z,20.53
2023-05-05T07:48:53.130Z,20.64
2023-05-05T07:51:21.631Z,20.76
2023-05-05T07:53:49.748Z,20.92
2023-05-05T07:56:18.415Z,21.14
2023-05-05T07:58:47.306Z,21.31
2023-05-05T08:01:15.193Z,21.44
2023-05-05T08:03:43.363Z,21.48
2023-05-05T08:06:11.899Z,21.52
2023-05-05T08:08:39.847Z,21.52
2023-05-05T08:11:08.158Z,21.50
2023-05-05T08:13:36.195Z,21.59
2023-05-05T08:16:04.371Z,21.73
2023-05-05T08:18:33.107Z,21.89
2023-05-05T08:21:00.941Z,22.13
2023-05-05T08:23:28.973Z,22.44
2023-05-05T08:25:57.082Z,22.74
2023-05-05T08:28:25.016Z,22.87
2023-05-05T08:30:53.079Z,22.94
2023-05-05T08:33:21.129Z,23.14
2023-05-05T08:35:49.549Z,23.34
2023-05-05T08:38:19.138Z,23.49
2023-05-05T08:40:47.222Z,23.58
2023-05-05T08:43:15.986Z,23.67
2023-05-05T08:45:45.149Z,23.83
2023-05-05T08:48:13.347Z,23.89
2023-05-05T08:50:48.323Z,23.78
2023-05-05T08:53:18.208Z,23.70
2023-05-05T08:55:51.638Z,23.71
2023-05-05T08:58:20.296Z,23.85
2023-05-05T09:00:48.637Z,23.94
2023-05-05T09:03:17.313Z,24.03
2023-05-05T09:05:45.848Z,23.97
2023-05-05T09:08:14.291Z,23.90
2023-05-05T09:10:42.903Z,23.89
2023-05-05T09:13:11.199Z,24.02
2023-05-05T09:15:40.180Z,24.25
2023-05-05T09:18:14.561Z,24.56
2023-05-05T09:20:42.613Z,24.89
2023-05-05T09:23:11.578Z,25.22
2023-05-05T09:25:41.341Z,25.59
2023-05-05T09:28:17.852Z,25.95
2023-05-05T09:30:47.485Z,26.24
2023-05-05T09:33:30.836Z,26.31
2023-05-05T09:35:58.756Z,26.40
2023-05-05T09:38:26.800Z,26.39
2023-05-05T09:40:54.868Z,26.33
2023-05-05T09:43:24.054Z,26.29
2023-05-05T09:46:08.498Z,26.17
2023-05-05T09:48:37.428Z,25.99
2023-05-05T09:51:06.065Z,25.79
2023-05-05T09:53:43.115Z,25.79
2023-05-05T09:56:11.177Z,25.80
2023-05-05T09:58:39.145Z,25.85
2023-05-05T10:01:22.868Z,26.05
2023-05-05T10:03:52.473Z,26.28
2023-05-05T10:06:20.567Z,26.42
2023-05-05T10:09:01.715Z,26.63
2023-05-05T10:11:30.379Z,26.77
2023-05-05T10:13:58.505Z,26.78
2023-05-05T10:16:30.127Z,26.66
2023-05-05T10:19:01.684Z,26.63
2023-05-05T10:21:34.406Z,26.50
2023-05-05T10:24:18.501Z,26.48
2023-05-05T10:26:47.291Z,26.74
2023-05-05T10:29:39.031Z,26.97
2023-05-05T10:32:53.938Z,27.12
2023-05-05T10:35:22.167Z,27.09
2023-05-05T10:37:50.830Z,27.15
2023-05-05T10:40:34.040Z,27.17
2023-05-05T10:43:02.635Z,27.15
2023-05-05T10:45:31.098Z,27.06
2023-05-05T10:48:03.032Z,27.14
2023-05-05T10:50:47.796Z,27.09
2023-05-05T10:53:42.866Z,26.79
2023-05-05T10:56:31.529Z,26.61
2023-05-05T10:59:00.644Z,26.63
2023-05-05T11:01:34.166Z,26.83
2023-05-05T11:04:22.098Z,27.07
2023-05-05T11:07:27.491Z,27.24
2023-05-05T11:10:03.077Z,27.32
2023-05-05T11:12:33.329Z,27.35
2023-05-05T11:15:26.273Z,27.44
2023-05-05T11:17:58.125Z,27.41
2023-05-05T11:20:35.109Z,27.23
2023-05-05T11:23:03.188Z,27.07
2023-05-05T11:25:37.925Z,27.08
2023-05-05T11:28:13.852Z,27.28
2023-05-05T11:31:05.012Z,27.55
2023-05-05T11:33:39.998Z,27.71
2023-05-05T11:36:13.101Z,27.85
2023-05-05T11:38:56.490Z,28.12
2023-05-05T11:41:33.634Z,28.46
2023-05-05T11:44:19.608Z,28.66
2023-05-05T11:46:54.361Z,28.70
2023-05-05T11:49:31.647Z,28.29
2023-05-05T11:52:00.681Z,27.86
2023-05-05T11:54:29.737Z,27.66
2023-05-05T11:57:00.610Z,27.64
2023-05-05T11:59:28.775Z,27.61
2023-05-05T12:01:56.879Z,27.57
2023-05-05T12:04:24.946Z,27.54
2023-05-05T12:06:53.020Z,27.40
2023-05-05T12:09:22.769Z,27.30
2023-05-05T12:11:52.953Z,27.19
2023-05-05T12:14:21.478Z,27.13
2023-05-05T12:16:56.599Z,27.11
2023-05-05T12:19:29.877Z,27.12
2023-05-05T12:21:57.813Z,27.24
2023-05-05T12:24:25.825Z,27.39
2023-05-05T12:26:53.906Z,27.51
2023-05-05T12:29:26.152Z,27.50
2023-05-05T12:31:54.808Z,27.23
2023-05-05T12:34:23.950Z,26.84
2023-05-05T12:36:52.597Z,26.26
2023-05-05T12:39:37.820Z,25.87
2023-05-05T12:42:06.499Z,25.80
2023-05-05T12:44:36.356Z,25.96
2023-05-05T12:47:05.014Z,26.18
2023-05-05T12:49:48.482Z,26.27
2023-05-05T12:52:17.378Z,26.22
2023-05-05T12:54:59.228Z,26.19
2023-05-05T12:57:27.285Z,26.03
2023-05-05T13:00:15.575Z,25.79
2023-05-05T13:02:43.822Z,25.55
2023-05-05T13:05:12.119Z,25.46
2023-05-05T13:07:52.442Z,25.48
2023-05-05T13:10:20.689Z,25.54
2023-05-05T13:12:48.655Z,25.60
2023-05-05T13:15:16.635Z,25.61
2023-05-05T13:17:44.506Z,25.64
2023-05-05T13:20:12.510Z,25.74
2023-05-05T13:22:40.584Z,25.90
2023-05-05T13:25:08.961Z,26.01
2023-05-05T13:27:37.969Z,26.16
2023-05-05T13:30:06.665Z,26.23
2023-05-05T13:32:34.577Z,26.12
2023-05-05T13:35:03.732Z,26.03
2023-05-05T13:37:31.619Z,26.11
2023-05-05T13:40:00.470Z,26.13
2023-05-05T13:42:28.491Z,26.15
2023-05-05T13:44:56.531Z,26.17
2023-05-05T13:47:24.552Z,26.13
2023-05-05T13:49:52.699Z,26.03
2023-05-05T13:52:20.681Z,25.95
2023-05-05T13:54:49.290Z,25.90
2023-05-05T13:57:17.496Z,25.89
2023-05-05T13:59:45.748Z,25.92
2023-05-05T14:02:13.690Z,25.88
2023-05-05T14:04:41.625Z,25.81
2023-05-05T14:07:09.529Z,25.73
2023-05-05T14:09:37.436Z,25.48
2023-05-05T14:12:06.257Z,25.22
2023-05-05T14:14:34.637Z,25.02
2023-05-05T14:17:02.674Z,24.99
2023-05-05T14:19:31.003Z,25.09
2023-05-05T14:21:59.018Z,25.01
2023-05-05T14:24:27.390Z,24.75
2023-05-05T14:26:55.274Z,24.50
2023-05-05T14:29:23.436Z,24.29
2023-05-05T14:31:51.590Z,24.21
2023-05-05T14:34:19.625Z,24.20
2023-05-05T14:36:48.065Z,24.28
2023-05-05T14:39:16.085Z,24.44
2023-05-05T14:41:44.482Z,24.56
2023-05-05T14:44:12.551Z,24.62
2023-05-05T14:46:40.856Z,24.67
2023-05-05T14:49:08.823Z,24.68
2023-05-05T14:51:36.678Z,24.64
2023-05-05T14:54:07.437Z,24.60
2023-05-05T14:56:39.768Z,24.55
2023-05-05T14:59:08.086Z,24.52
2023-05-05T15:01:36.540Z,24.47
2023-05-05T15:04:04.933Z,24.42
2023-05-05T15:06:32.997Z,24.38
2023-05-05T15:09:01.052Z,24.35
2023-05-05T15:11:29.520Z,24.30
2023-05-05T15:13:57.400Z,24.26
2023-05-05T15:16:25.418Z,24.24
2023-05-05T15:18:53.392Z,24.22
2023-05-05T15:21:21.461Z,24.17
2023-05-05T15:23:49.346Z,24.13
2023-05-05T15:26:17.365Z,23.99
2023-05-05T15:28:45.267Z,23.79
2023-05-05T15:31:13.206Z,23.54
2023-05-05T15:33:41.304Z,23.32
2023-05-05T15:36:09.920Z,23.21
2023-05-05T15:38:44.928Z,23.15
2023-05-05T15:41:12.706Z,23.11
2023-05-05T15:43:40.739Z,23.01
2023-05-05T15:46:08.583Z,22.92
2023-05-05T15:48:36.706Z,22.86
2023-05-05T15:51:04.759Z,22.75
2023-05-05T15:54:14.348Z,22.60
2023-05-05T15:56:42.334Z,22.45
2023-05-05T15:59:10.377Z,22.37
2023-05-05T16:01:38.591Z,22.26
2023-05-05T16:04:06.837Z,22.19
2023-05-05T16:06:34.769Z,22.12
2023-05-05T16:09:02.737Z,21.98
2023-05-05T16:11:31.440Z,21.84
2023-05-05T16:14:59.817Z,21.72
2023-05-05T16:17:47.665Z,21.54
2023-05-05T16:20:15.932Z,21.48
2023-05-05T16:23:03.818Z,21.46
2023-05-05T16:25:31.742Z,21.40
2023-05-05T16:28:01.666Z,21.38
2023-05-05T16:30:29.853Z,21.36
2023-05-05T16:33:58.518Z,21.40
2023-05-05T16:37:26.955Z,21.44
2023-05-05T16:39:55.083Z,21.49
2023-05-05T16:42:23.357Z,21.50
2023-05-05T16:44:51.214Z,21.46
2023-05-05T16:47:19.470Z,21.38
2023-05-05T16:49:47.612Z,21.25
2023-05-05T16:52:15.546Z,21.17
2023-05-05T16:54:43.788Z,21.11
2023-05-05T16:57:12.120Z,21.04
2023-05-05T16:59:41.903Z,20.98
2023-05-05T17:02:10.012Z,20.95
2023-05-05T17:05:38.496Z,20.91
2023-05-05T17:08:07.864Z,20.84
2023-05-05T17:10:35.923Z,20.79
2023-05-05T17:14:04.662Z,20.72
2023-05-05T17:17:13.754Z,20.56
2023-05-05T17:19:42.888Z,20.51
2023-05-05T17:22:10.957Z,20.44
2023-05-05T17:24:39.253Z,20.38
2023-05-05T17:27:07.461Z,20.33
2023-05-05T17:29:40.943Z,20.28
2023-05-05T17:32:09.363Z,20.21
2023-05-05T17:34:37.714Z,20.15
2023-05-05T17:37:06.033Z,20.11
2023-05-05T17:39:34.024Z,20.08
2023-05-05T17:42:02.067Z,20.02
2023-05-05T17:45:10.291Z,19.95
2023-05-05T17:47:55.999Z,19.84
2023-05-05T17:50:24.559Z,19.74
2023-05-05T17:52:52.520Z,19.63
2023-05-05T17:55:20.801Z,19.55
2023-05-05T17:57:48.854Z,19.48
2023-05-05T18:00:18.897Z,19.41
2023-05-05T18:02:51.179Z,19.34
2023-05-05T18:06:19.883Z,19.24
2023-05-05T18:08:48.652Z,19.09
2023-05-05T18:11:16.757Z,19.02
2023-05-05T18:13:44.871Z,18.96
2023-05-05T18:16:12.898Z,18.86
2023-05-05T18:18:41.525Z,18.77
2023-05-05T18:21:12.798Z,18.68
2023-05-05T18:23:40.798Z,18.59
2023-05-05T18:26:09.126Z,18.55
2023-05-05T18:28:37.610Z,18.48
2023-05-05T18:31:06.322Z,18.44
2023-05-05T18:33:34.501Z,18.38
2023-05-05T18:36:43.254Z,18.31
2023-05-05T18:39:11.594Z,18.24
2023-05-05T18:41:40.000Z,18.19
2023-05-05T18:44:08.206Z,18.14
2023-05-05T18:46:36.296Z,18.08
2023-05-05T18:49:18.560Z,18.03
2023-05-05T18:51:47.071Z,17.99
2023-05-05T18:54:15.322Z,17.95
2023-05-05T18:56:43.857Z,17.90
2023-05-05T18:59:12.238Z,17.84
2023-05-05T19:01:41.060Z,17.79
2023-05-05T19:04:22.538Z,17.75
2023-05-05T19:06:55.191Z,17.70
2023-05-05T19:09:23.407Z,17.64
2023-05-05T19:11:51.658Z,17.57
2023-05-05T19:14:45.184Z,17.49
2023-05-05T19:17:13.396Z,17.46
2023-05-05T19:19:41.620Z,17.44
2023-05-05T19:22:09.859Z,17.42
2023-05-05T19:24:37.964Z,17.41
2023-05-05T19:27:08.774Z,17.42
2023-05-05T19:29:38.264Z,17.42
2023-05-05T19:32:16.718Z,17.38
2023-05-05T19:34:45.242Z,17.38
2023-05-05T19:37:15.567Z,17.37
2023-05-05T19:39:45.827Z,17.34
2023-05-05T19:42:14.209Z,17.28
2023-05-05T19:44:42.592Z,17.22
2023-05-05T19:47:11.290Z,17.19
2023-05-05T19:49:39.550Z,17.15
2023-05-05T19:52:08.043Z,17.14
2023-05-05T19:54:36.289Z,17.12
2023-05-05T19:57:05.303Z,17.09
2023-05-05T19:59:34.105Z,17.06
2023-05-05T20:02:02.261Z,17.03
2023-05-05T20:04:30.472Z,17.00
2023-05-05T20:06:59.732Z,16.97
2023-05-05T20:09:28.255Z,16.95
2023-05-05T20:11:59.178Z,16.94
2023-05-05T20:14:27.456Z,16.90
2023-05-05T20:16:55.925Z,16.84
2023-05-05T20:19:24.286Z,16.74
2023-05-05T20:21:52.576Z,16.75
2023-05-05T20:24:20.745Z,16.69
2023-05-05T20:26:49.477Z,16.54
2023-05-05T20:29:46.807Z,16.57
2023-05-05T20:32:15.822Z,16.51
2023-05-05T20:34:43.962Z,16.48
2023-05-05T20:37:13.793Z,16.45
2023-05-05T20:39:43.898Z,16.43
2023-05-05T20:42:12.089Z,16.41
2023-05-05T20:44:40.228Z,16.36
2023-05-05T20:47:08.732Z,16.30
2023-05-05T20:49:37.542Z,16.23
2023-05-05T20:52:05.971Z,16.17
2023-05-05T20:54:34.387Z,16.12
2023-05-05T20:57:03.279Z,16.04
2023-05-05T20:59:32.331Z,16.05
2023-05-05T21:02:01.167Z,16.02
2023-05-05T21:04:29.546Z,15.94
2023-05-05T21:06:57.827Z,15.92
2023-05-05T21:09:26.123Z,15.85
2023-05-05T21:11:54.440Z,15.80
2023-05-05T21:14:23.425Z,15.70
2023-05-05T21:16:51.503Z,15.67
2023-05-05T21:19:19.713Z,15.62
2023-05-05T21:21:48.235Z,15.57
2023-05-05T21:24:16.511Z,15.54
2023-05-05T21:27:45.601Z,15.52
2023-05-05T21:31:33.984Z,15.50
2023-05-05T21:35:22.554Z,15.48
2023-05-05T21:37:59.419Z,15.49
2023-05-05T21:40:33.242Z,15.51
2023-05-05T21:43:01.228Z,15.53
2023-05-05T21:45:29.176Z,15.53
2023-05-05T21:47:57.174Z,15.49
2023-05-05T21:50:26.158Z,15.45
2023-05-05T21:52:55.126Z,15.39
2023-05-05T21:55:23.084Z,15.33
2023-05-05T21:57:51.212Z,15.28
2023-05-05T22:00:19.404Z,15.22
2023-05-05T22:02:47.422Z,15.12
2023-05-05T22:05:15.495Z,15.01
2023-05-05T22:07:51.489Z,14.92
2023-05-05T22:11:20.312Z,14.84
2023-05-05T22:13:52.549Z,14.74
2023-05-05T22:16:20.739Z,14.70
2023-05-05T22:18:49.757Z,14.64
2023-05-05T22:22:18.238Z,14.61
2023-05-05T22:24:46.236Z,14.57
2023-05-05T22:27:14.294Z,14.55
2023-05-05T22:29:42.666Z,14.51
2023-05-05T22:32:10.718Z,14.48
2023-05-05T22:34:38.642Z,14.45
2023-05-05T22:37:06.630Z,14.44
2023-05-05T22:39:35.016Z,14.45
2023-05-05T22:42:03.834Z,14.45
2023-05-05T22:44:31.836Z,14.45
2023-05-05T22:46:59.866Z,14.44
2023-05-05T22:49:28.846Z,14.43
2023-05-05T22:51:57.300Z,14.38
2023-05-05T22:54:25.412Z,14.33
2023-05-05T22:56:53.559Z,14.30
2023-05-05T22:59:21.833Z,14.26
2023-05-05T23:02:50.293Z,14.22
2023-05-05T23:05:23.835Z,14.15
2023-05-05T23:07:51.917Z,14.11
2023-05-05T23:11:20.588Z,14.11
2023-05-05T23:13:48.697Z,14.09
2023-05-05T23:16:16.707Z,14.06
2023-05-05T23:18:44.785Z,14.01
2023-05-05T23:21:12.856Z,13.99
2023-05-05T23:24:00.935Z,13.96
2023-05-05T23:26:29.068Z,13.93
2023-05-05T23:28:57.145Z,13.89
2023-05-05T23:31:25.238Z,13.86
2023-05-05T23:34:53.861Z,13.85
2023-05-05T23:38:02.407Z,13.79
2023-05-05T23:40:30.332Z,13.76
2023-05-05T23:42:59.477Z,13.69
2023-05-05T23:45:27.779Z,13.66
2023-05-05T23:47:55.733Z,13.65
2023-05-05T23:50:25.848Z,13.65
2023-05-05T23:53:35.049Z,13.62
2023-05-05T23:56:03.469Z,13.57
2023-05-05T23:58:31.521Z,13.53
